OMS437 OOMS-VCBI
Flight info
| Callsign | OMS437 |
|---|---|
| Flight time | N/A |
| Altitude | 37000 |
| Route | EMURU M300 VASTU P895 BIKOK BIKOK1A |
| Aircraft | A20N/M-SDE2E3FGHIRWXY/LB1 |
Departure
| Time | N/A |
|---|---|
| Airport | Muscat International Airport (OOMS) |
Arrival
| Time | 2026-04-27 22:12 |
|---|---|
| Airport | Bandaranaike International Colombo Airport (VCBI) |
| Time | Latitude | Longitude | Altitude | Speed | Heading |
|---|---|---|---|---|---|
| 2026-04-27 19:17 | 19.79695 | 62.30928 | 36811 ft | 471 kts | 122° |
| 2026-04-27 19:17 | 19.76142 | 62.36751 | 36808 ft | 468 kts | 123° |
| 2026-04-27 19:18 | 19.72590 | 62.42565 | 36808 ft | 471 kts | 123° |
| 2026-04-27 19:18 | 19.69027 | 62.48392 | 36810 ft | 468 kts | 123° |
| 2026-04-27 19:19 | 19.65470 | 62.54202 | 36817 ft | 471 kts | 123° |
| 2026-04-27 19:19 | 19.61930 | 62.59981 | 36812 ft | 469 kts | 123° |
| 2026-04-27 19:20 | 19.58365 | 62.65795 | 36811 ft | 470 kts | 123° |
| 2026-04-27 19:20 | 19.54800 | 62.71602 | 36811 ft | 467 kts | 123° |
| 2026-04-27 19:21 | 19.51241 | 62.77394 | 36814 ft | 470 kts | 123° |
| 2026-04-27 19:21 | 19.47674 | 62.83194 | 36819 ft | 468 kts | 123° |
| 2026-04-27 19:22 | 19.44126 | 62.88957 | 36818 ft | 471 kts | 123° |
| 2026-04-27 19:22 | 19.40548 | 62.94763 | 36817 ft | 468 kts | 123° |
| 2026-04-27 19:23 | 19.36984 | 63.00542 | 36821 ft | 471 kts | 123° |
| 2026-04-27 19:23 | 19.33427 | 63.06302 | 36822 ft | 468 kts | 123° |
| 2026-04-27 19:24 | 19.29877 | 63.12048 | 36889 ft | 470 kts | 123° |
| 2026-04-27 19:24 | 19.28085 | 63.14948 | 37020 ft | 469 kts | 123° |
| 2026-04-27 19:24 | 19.26295 | 63.17841 | 37176 ft | 469 kts | 123° |
| 2026-04-27 19:24 | 19.24508 | 63.20726 | 37334 ft | 468 kts | 123° |
| 2026-04-27 19:25 | 19.22724 | 63.23607 | 37420 ft | 469 kts | 123° |
| 2026-04-27 19:25 | 19.20935 | 63.26495 | 37529 ft | 468 kts | 123° |
| 2026-04-27 19:25 | 19.19150 | 63.29373 | 37681 ft | 467 kts | 123° |
| 2026-04-27 19:25 | 19.17366 | 63.32249 | 37807 ft | 466 kts | 123° |
| 2026-04-27 19:26 | 19.15587 | 63.35118 | 37823 ft | 467 kts | 123° |
| 2026-04-27 19:26 | 19.12011 | 63.40878 | 37832 ft | 467 kts | 123° |
| 2026-04-27 19:27 | 19.08453 | 63.46604 | 37823 ft | 467 kts | 123° |
| 2026-04-27 19:27 | 19.04906 | 63.52308 | 37837 ft | 466 kts | 123° |
| 2026-04-27 19:28 | 19.01347 | 63.58027 | 37822 ft | 467 kts | 123° |
| 2026-04-27 19:28 | 18.97770 | 63.63766 | 37834 ft | 467 kts | 123° |
| 2026-04-27 19:29 | 18.94201 | 63.69485 | 37821 ft | 466 kts | 123° |
| 2026-04-27 19:29 | 18.90627 | 63.75215 | 37822 ft | 467 kts | 123° |
| 2026-04-27 19:30 | 18.87051 | 63.80942 | 37818 ft | 467 kts | 123° |
| 2026-04-27 19:30 | 18.83459 | 63.86689 | 37815 ft | 468 kts | 123° |
| 2026-04-27 19:31 | 18.79909 | 63.92363 | 37821 ft | 465 kts | 124° |
| 2026-04-27 19:31 | 18.76330 | 63.98078 | 37821 ft | 467 kts | 124° |
| 2026-04-27 19:32 | 18.72756 | 64.03780 | 37825 ft | 466 kts | 123° |
| 2026-04-27 19:32 | 18.69168 | 64.09499 | 37828 ft | 467 kts | 124° |
| 2026-04-27 19:33 | 18.65583 | 64.15208 | 37841 ft | 466 kts | 124° |
| 2026-04-27 19:33 | 18.62011 | 64.20891 | 37833 ft | 467 kts | 124° |
| 2026-04-27 19:34 | 18.58423 | 64.26595 | 37836 ft | 466 kts | 124° |
| 2026-04-27 19:34 | 18.54835 | 64.32293 | 37836 ft | 466 kts | 124° |
| 2026-04-27 19:35 | 18.51252 | 64.37979 | 37834 ft | 466 kts | 124° |
| 2026-04-27 19:35 | 18.47658 | 64.43675 | 37832 ft | 467 kts | 124° |
| 2026-04-27 19:36 | 18.44085 | 64.49335 | 37831 ft | 466 kts | 124° |
| 2026-04-27 19:36 | 18.40497 | 64.55014 | 37827 ft | 465 kts | 124° |
| 2026-04-27 19:37 | 18.36909 | 64.60686 | 37825 ft | 465 kts | 124° |
| 2026-04-27 19:37 | 18.33317 | 64.66360 | 37817 ft | 465 kts | 124° |
| 2026-04-27 19:38 | 18.29731 | 64.72022 | 37828 ft | 464 kts | 124° |
| 2026-04-27 19:38 | 18.26174 | 64.77631 | 37829 ft | 464 kts | 124° |
| 2026-04-27 19:39 | 18.22591 | 64.83276 | 37835 ft | 463 kts | 124° |
| 2026-04-27 19:39 | 18.19003 | 64.88923 | 37831 ft | 463 kts | 124° |
| 2026-04-27 19:40 | 18.15419 | 64.94561 | 37828 ft | 463 kts | 124° |
| 2026-04-27 19:40 | 18.11861 | 65.00153 | 37825 ft | 463 kts | 124° |
| 2026-04-27 19:41 | 18.08276 | 65.05781 | 37821 ft | 463 kts | 125° |
| 2026-04-27 19:41 | 18.04689 | 65.11410 | 37832 ft | 463 kts | 125° |
| 2026-04-27 19:42 | 18.01105 | 65.17027 | 37833 ft | 463 kts | 125° |
| 2026-04-27 19:42 | 17.97535 | 65.22618 | 37832 ft | 463 kts | 125° |
| 2026-04-27 19:43 | 17.93949 | 65.28228 | 37830 ft | 463 kts | 125° |
| 2026-04-27 19:43 | 17.90361 | 65.33839 | 37829 ft | 463 kts | 125° |
| 2026-04-27 19:44 | 17.86763 | 65.39459 | 37829 ft | 463 kts | 125° |
| 2026-04-27 19:44 | 17.83169 | 65.45067 | 37830 ft | 463 kts | 125° |
| 2026-04-27 19:45 | 17.79575 | 65.50675 | 37816 ft | 463 kts | 126° |
| 2026-04-27 19:45 | 17.75972 | 65.56289 | 37818 ft | 464 kts | 126° |
| 2026-04-27 19:46 | 17.72361 | 65.61909 | 37826 ft | 464 kts | 126° |
| 2026-04-27 19:46 | 17.68745 | 65.67534 | 37821 ft | 465 kts | 126° |
| 2026-04-27 19:47 | 17.65146 | 65.73127 | 37828 ft | 466 kts | 126° |
| 2026-04-27 19:47 | 17.61518 | 65.78764 | 37831 ft | 467 kts | 126° |
| 2026-04-27 19:48 | 17.57962 | 65.84488 | 37850 ft | 468 kts | 124° |
| 2026-04-27 19:48 | 17.54447 | 65.90238 | 37839 ft | 468 kts | 125° |
| 2026-04-27 19:49 | 17.50911 | 65.95985 | 37826 ft | 470 kts | 126° |
| 2026-04-27 19:49 | 17.47359 | 66.01738 | 37836 ft | 471 kts | 126° |
| 2026-04-27 19:50 | 17.43795 | 66.07501 | 38051 ft | 470 kts | 125° |
| 2026-04-27 19:50 | 17.42017 | 66.10374 | 38189 ft | 469 kts | 125° |
| 2026-04-27 19:50 | 17.40263 | 66.13210 | 38306 ft | 469 kts | 125° |
| 2026-04-27 19:51 | 17.36718 | 66.18934 | 38335 ft | 468 kts | 125° |
| 2026-04-27 19:51 | 17.33173 | 66.24656 | 38332 ft | 468 kts | 125° |
| 2026-04-27 19:52 | 17.29619 | 66.30385 | 38329 ft | 470 kts | 126° |
| 2026-04-27 19:52 | 17.26064 | 66.36112 | 38330 ft | 469 kts | 126° |
| 2026-04-27 19:53 | 17.20745 | 66.44670 | 38333 ft | 469 kts | 126° |
| 2026-04-27 19:53 | 17.17181 | 66.50400 | 38330 ft | 469 kts | 126° |
| 2026-04-27 19:54 | 17.13618 | 66.56121 | 38331 ft | 469 kts | 126° |
| 2026-04-27 19:54 | 17.10052 | 66.61844 | 38326 ft | 469 kts | 126° |
| 2026-04-27 19:55 | 17.06507 | 66.67528 | 38319 ft | 470 kts | 126° |
| 2026-04-27 19:55 | 17.02932 | 66.73255 | 38325 ft | 470 kts | 126° |
| 2026-04-27 19:56 | 16.99958 | 66.78019 | 38316 ft | 470 kts | 127° |
| 2026-04-27 19:56 | 16.96380 | 66.83741 | 38322 ft | 471 kts | 127° |
| 2026-04-27 19:57 | 16.92789 | 66.89480 | 38323 ft | 471 kts | 127° |
| 2026-04-27 19:57 | 16.89203 | 66.95208 | 38324 ft | 472 kts | 127° |
| 2026-04-27 19:58 | 16.85606 | 67.00947 | 38324 ft | 472 kts | 127° |
| 2026-04-27 19:58 | 16.82029 | 67.06651 | 38329 ft | 473 kts | 127° |
| 2026-04-27 19:59 | 16.78418 | 67.12403 | 38333 ft | 473 kts | 127° |
| 2026-04-27 19:59 | 16.74806 | 67.18154 | 38324 ft | 474 kts | 128° |
| 2026-04-27 20:00 | 16.71189 | 67.23909 | 38328 ft | 474 kts | 128° |
| 2026-04-27 20:00 | 16.67569 | 67.29661 | 38329 ft | 474 kts | 128° |
| 2026-04-27 20:01 | 16.63937 | 67.35428 | 38330 ft | 475 kts | 128° |
| 2026-04-27 20:01 | 16.60330 | 67.41151 | 38331 ft | 475 kts | 128° |
| 2026-04-27 20:02 | 16.56696 | 67.46912 | 38333 ft | 475 kts | 128° |
| 2026-04-27 20:02 | 16.53060 | 67.52672 | 38332 ft | 475 kts | 128° |
| 2026-04-27 20:03 | 16.49430 | 67.58419 | 38319 ft | 472 kts | 128° |
| 2026-04-27 20:03 | 16.45820 | 67.64128 | 38319 ft | 472 kts | 128° |
| 2026-04-27 20:04 | 16.42204 | 67.69840 | 38318 ft | 472 kts | 128° |
| 2026-04-27 20:04 | 16.38590 | 67.75547 | 38318 ft | 472 kts | 128° |
| 2026-04-27 20:05 | 16.34993 | 67.81221 | 38321 ft | 472 kts | 128° |
| 2026-04-27 20:05 | 16.31368 | 67.86935 | 38320 ft | 472 kts | 128° |
| 2026-04-27 20:06 | 16.27744 | 67.92647 | 38321 ft | 472 kts | 128° |
| 2026-04-27 20:06 | 16.24151 | 67.98327 | 38322 ft | 472 kts | 128° |
| 2026-04-27 20:07 | 16.20572 | 68.04025 | 38323 ft | 473 kts | 128° |
| 2026-04-27 20:07 | 16.16984 | 68.09732 | 38321 ft | 469 kts | 128° |
| 2026-04-27 20:08 | 16.13395 | 68.15430 | 38318 ft | 470 kts | 128° |
| 2026-04-27 20:08 | 16.09809 | 68.21119 | 38317 ft | 470 kts | 128° |
| 2026-04-27 20:09 | 16.06225 | 68.26800 | 38318 ft | 470 kts | 128° |
| 2026-04-27 20:09 | 16.02640 | 68.32477 | 38320 ft | 470 kts | 128° |
| 2026-04-27 20:10 | 15.99048 | 68.38161 | 38321 ft | 470 kts | 128° |
| 2026-04-27 20:10 | 15.95455 | 68.43844 | 38321 ft | 470 kts | 128° |
| 2026-04-27 20:11 | 15.91888 | 68.49481 | 38310 ft | 470 kts | 128° |
| 2026-04-27 20:11 | 15.88296 | 68.55152 | 38323 ft | 470 kts | 128° |
| 2026-04-27 20:12 | 15.84703 | 68.60822 | 38322 ft | 470 kts | 128° |
| 2026-04-27 20:12 | 15.81104 | 68.66495 | 38321 ft | 469 kts | 128° |
| 2026-04-27 20:13 | 15.77514 | 68.72151 | 38322 ft | 469 kts | 128° |
| 2026-04-27 20:13 | 15.73919 | 68.77809 | 38315 ft | 469 kts | 128° |
| 2026-04-27 20:14 | 15.70327 | 68.83460 | 38315 ft | 469 kts | 128° |
| 2026-04-27 20:14 | 15.66760 | 68.89066 | 38310 ft | 468 kts | 128° |
| 2026-04-27 20:15 | 15.63171 | 68.94703 | 38300 ft | 468 kts | 128° |
| 2026-04-27 20:15 | 15.59578 | 69.00342 | 38305 ft | 467 kts | 128° |
| 2026-04-27 20:16 | 15.55989 | 69.05970 | 38304 ft | 467 kts | 128° |
| 2026-04-27 20:16 | 15.52398 | 69.11598 | 38303 ft | 467 kts | 128° |
| 2026-04-27 20:17 | 15.48809 | 69.17218 | 38300 ft | 467 kts | 128° |
| 2026-04-27 20:17 | 15.45825 | 69.21887 | 38303 ft | 467 kts | 128° |
| 2026-04-27 20:18 | 15.41648 | 69.28419 | 38300 ft | 467 kts | 128° |
| 2026-04-27 20:18 | 15.38054 | 69.34033 | 38301 ft | 468 kts | 128° |
| 2026-04-27 20:19 | 15.34451 | 69.39659 | 38307 ft | 468 kts | 128° |
| 2026-04-27 20:19 | 15.30843 | 69.45288 | 38314 ft | 468 kts | 128° |
| 2026-04-27 20:20 | 15.27263 | 69.50869 | 38316 ft | 468 kts | 128° |
| 2026-04-27 20:20 | 15.23668 | 69.56472 | 38308 ft | 466 kts | 128° |
| 2026-04-27 20:21 | 15.20083 | 69.62052 | 38310 ft | 465 kts | 128° |
| 2026-04-27 20:21 | 15.16492 | 69.67637 | 38306 ft | 466 kts | 128° |
| 2026-04-27 20:22 | 15.12900 | 69.73222 | 38308 ft | 466 kts | 128° |
| 2026-04-27 20:22 | 15.09341 | 69.78784 | 38306 ft | 466 kts | 128° |
| 2026-04-27 20:23 | 15.05793 | 69.84391 | 38301 ft | 466 kts | 128° |
| 2026-04-27 20:23 | 15.02229 | 69.90014 | 38309 ft | 466 kts | 128° |
| 2026-04-27 20:24 | 14.98689 | 69.95588 | 38304 ft | 466 kts | 128° |
| 2026-04-27 20:24 | 14.95132 | 70.01182 | 38304 ft | 465 kts | 128° |
| 2026-04-27 20:25 | 14.91568 | 70.06784 | 38303 ft | 465 kts | 128° |
| 2026-04-27 20:25 | 14.88006 | 70.12379 | 38303 ft | 465 kts | 128° |
| 2026-04-27 20:26 | 14.84444 | 70.17971 | 38303 ft | 465 kts | 128° |
| 2026-04-27 20:26 | 14.80881 | 70.23560 | 38299 ft | 465 kts | 128° |
| 2026-04-27 20:27 | 14.77318 | 70.29145 | 38299 ft | 465 kts | 128° |
| 2026-04-27 20:27 | 14.73749 | 70.34733 | 38361 ft | 466 kts | 128° |
| 2026-04-27 20:28 | 14.70198 | 70.40292 | 38553 ft | 466 kts | 128° |
| 2026-04-27 20:28 | 14.67208 | 70.44971 | 38692 ft | 466 kts | 128° |
| 2026-04-27 20:29 | 14.63053 | 70.51465 | 38798 ft | 466 kts | 128° |
| 2026-04-27 20:29 | 14.59485 | 70.57039 | 38800 ft | 464 kts | 128° |
| 2026-04-27 20:30 | 14.55919 | 70.62605 | 38801 ft | 465 kts | 128° |
| 2026-04-27 20:30 | 14.52351 | 70.68170 | 38801 ft | 465 kts | 128° |
| 2026-04-27 20:31 | 14.48803 | 70.73699 | 38802 ft | 465 kts | 128° |
| 2026-04-27 20:31 | 14.45234 | 70.79258 | 38801 ft | 465 kts | 128° |
| 2026-04-27 20:32 | 14.41663 | 70.84817 | 38799 ft | 465 kts | 128° |
| 2026-04-27 20:32 | 14.38091 | 70.90374 | 38802 ft | 464 kts | 128° |
| 2026-04-27 20:33 | 14.34516 | 70.95934 | 38803 ft | 465 kts | 128° |
| 2026-04-27 20:33 | 14.30981 | 71.01525 | 38803 ft | 465 kts | 127° |
| 2026-04-27 20:34 | 14.27482 | 71.07082 | 38804 ft | 465 kts | 127° |
| 2026-04-27 20:34 | 14.23952 | 71.12670 | 38803 ft | 465 kts | 127° |
| 2026-04-27 20:35 | 14.20416 | 71.18260 | 38799 ft | 465 kts | 127° |
| 2026-04-27 20:35 | 14.16903 | 71.23809 | 38799 ft | 464 kts | 127° |
| 2026-04-27 20:36 | 14.13380 | 71.29370 | 38798 ft | 462 kts | 127° |
| 2026-04-27 20:36 | 14.09858 | 71.34925 | 38799 ft | 463 kts | 127° |
| 2026-04-27 20:37 | 14.06350 | 71.40455 | 38798 ft | 463 kts | 127° |
| 2026-04-27 20:37 | 14.02819 | 71.46017 | 38802 ft | 463 kts | 127° |
| 2026-04-27 20:38 | 13.99287 | 71.51577 | 38798 ft | 463 kts | 127° |
| 2026-04-27 20:38 | 13.95760 | 71.57126 | 38798 ft | 463 kts | 127° |
| 2026-04-27 20:39 | 13.92257 | 71.62635 | 38804 ft | 463 kts | 127° |
| 2026-04-27 20:39 | 13.88730 | 71.68176 | 38804 ft | 463 kts | 127° |
| 2026-04-27 20:40 | 13.85200 | 71.73719 | 38815 ft | 462 kts | 127° |
| 2026-04-27 20:40 | 13.81673 | 71.79254 | 38800 ft | 462 kts | 127° |
| 2026-04-27 20:41 | 13.78146 | 71.84784 | 38800 ft | 462 kts | 127° |
| 2026-04-27 20:41 | 13.74617 | 71.90313 | 38798 ft | 462 kts | 127° |
| 2026-04-27 20:42 | 13.71092 | 71.95834 | 38797 ft | 461 kts | 127° |
| 2026-04-27 20:42 | 13.68104 | 72.00377 | 38794 ft | 459 kts | 131° |
| 2026-04-27 20:43 | 13.63445 | 72.06294 | 38790 ft | 458 kts | 133° |
| 2026-04-27 20:43 | 13.59426 | 72.11383 | 38790 ft | 458 kts | 133° |
| 2026-04-27 20:44 | 13.56086 | 72.15612 | 38790 ft | 458 kts | 133° |
| 2026-04-27 20:44 | 13.52071 | 72.20690 | 38792 ft | 458 kts | 133° |
| 2026-04-27 20:45 | 13.48042 | 72.25783 | 38793 ft | 458 kts | 133° |
| 2026-04-27 20:45 | 13.44038 | 72.30838 | 38787 ft | 458 kts | 133° |
| 2026-04-27 20:46 | 13.40012 | 72.35920 | 38791 ft | 459 kts | 133° |
| 2026-04-27 20:46 | 13.35973 | 72.41015 | 38794 ft | 459 kts | 133° |
| 2026-04-27 20:47 | 13.31935 | 72.46106 | 38798 ft | 460 kts | 133° |
| 2026-04-27 20:47 | 13.27890 | 72.51202 | 38798 ft | 460 kts | 133° |
| 2026-04-27 20:48 | 13.23867 | 72.56268 | 38792 ft | 461 kts | 133° |
| 2026-04-27 20:48 | 13.19812 | 72.61371 | 38805 ft | 461 kts | 133° |
| 2026-04-27 20:49 | 13.15759 | 72.66470 | 38804 ft | 461 kts | 133° |
| 2026-04-27 20:49 | 13.11702 | 72.71569 | 38800 ft | 461 kts | 133° |
| 2026-04-27 20:50 | 13.07646 | 72.76666 | 38804 ft | 460 kts | 133° |
| 2026-04-27 20:50 | 13.03601 | 72.81744 | 38794 ft | 460 kts | 133° |
| 2026-04-27 20:51 | 12.99575 | 72.86795 | 38791 ft | 460 kts | 133° |
| 2026-04-27 20:51 | 12.95518 | 72.91884 | 38790 ft | 460 kts | 133° |
| 2026-04-27 20:52 | 12.91466 | 72.96962 | 38786 ft | 459 kts | 133° |
| 2026-04-27 20:52 | 12.87433 | 73.02016 | 38795 ft | 457 kts | 133° |
| 2026-04-27 20:53 | 12.83421 | 73.07038 | 38799 ft | 458 kts | 133° |
| 2026-04-27 20:53 | 12.79383 | 73.12092 | 38799 ft | 458 kts | 133° |
| 2026-04-27 20:54 | 12.73323 | 73.19669 | 38799 ft | 458 kts | 133° |
| 2026-04-27 20:55 | 12.69308 | 73.24687 | 38789 ft | 458 kts | 133° |
| 2026-04-27 20:55 | 12.65269 | 73.29731 | 38792 ft | 458 kts | 133° |
| 2026-04-27 20:56 | 12.61230 | 73.34773 | 38792 ft | 458 kts | 133° |
| 2026-04-27 20:56 | 12.57199 | 73.39802 | 38786 ft | 455 kts | 133° |
| 2026-04-27 20:57 | 12.53182 | 73.44811 | 38793 ft | 456 kts | 133° |
| 2026-04-27 20:57 | 12.49155 | 73.49828 | 38789 ft | 456 kts | 133° |
| 2026-04-27 20:58 | 12.45126 | 73.54846 | 38783 ft | 456 kts | 133° |
| 2026-04-27 20:58 | 12.41100 | 73.59858 | 38785 ft | 456 kts | 133° |
| 2026-04-27 20:59 | 12.37074 | 73.64867 | 38788 ft | 456 kts | 133° |
| 2026-04-27 20:59 | 12.33061 | 73.69861 | 38782 ft | 453 kts | 134° |
| 2026-04-27 21:00 | 12.29077 | 73.74811 | 38783 ft | 454 kts | 133° |
| 2026-04-27 21:00 | 12.25068 | 73.79791 | 38796 ft | 452 kts | 133° |
| 2026-04-27 21:01 | 12.21064 | 73.84762 | 38795 ft | 452 kts | 133° |
| 2026-04-27 21:01 | 12.17060 | 73.89730 | 38783 ft | 453 kts | 133° |
| 2026-04-27 21:02 | 12.13055 | 73.94697 | 38793 ft | 453 kts | 133° |
| 2026-04-27 21:02 | 12.09045 | 73.99668 | 38791 ft | 453 kts | 133° |
| 2026-04-27 21:03 | 12.05036 | 74.04634 | 38782 ft | 453 kts | 133° |
| 2026-04-27 21:03 | 12.01026 | 74.09600 | 38783 ft | 453 kts | 133° |
| 2026-04-27 21:04 | 11.97009 | 74.14572 | 38774 ft | 454 kts | 133° |
| 2026-04-27 21:04 | 11.92987 | 74.19544 | 38800 ft | 454 kts | 133° |
| 2026-04-27 21:05 | 11.88968 | 74.24514 | 38807 ft | 454 kts | 133° |
| 2026-04-27 21:05 | 11.84966 | 74.29462 | 38802 ft | 454 kts | 133° |
| 2026-04-27 21:06 | 11.80937 | 74.34438 | 38797 ft | 454 kts | 133° |
| 2026-04-27 21:06 | 11.76908 | 74.39408 | 38803 ft | 454 kts | 132° |
| 2026-04-27 21:07 | 11.72880 | 74.44377 | 38798 ft | 454 kts | 132° |
| 2026-04-27 21:07 | 11.68856 | 74.49341 | 38802 ft | 454 kts | 132° |
| 2026-04-27 21:08 | 11.64854 | 74.54273 | 38797 ft | 453 kts | 132° |
| 2026-04-27 21:08 | 11.60825 | 74.59236 | 38797 ft | 453 kts | 132° |
| 2026-04-27 21:09 | 11.56808 | 74.64183 | 38797 ft | 453 kts | 132° |
| 2026-04-27 21:09 | 11.52786 | 74.69133 | 38795 ft | 453 kts | 132° |
| 2026-04-27 21:10 | 11.48765 | 74.74081 | 38795 ft | 453 kts | 132° |
| 2026-04-27 21:10 | 11.44741 | 74.79028 | 38793 ft | 453 kts | 132° |
| 2026-04-27 21:11 | 11.40743 | 74.83943 | 38792 ft | 453 kts | 132° |
| 2026-04-27 21:11 | 11.36724 | 74.88881 | 38791 ft | 453 kts | 132° |
| 2026-04-27 21:12 | 11.32700 | 74.93822 | 38800 ft | 453 kts | 132° |
| 2026-04-27 21:12 | 11.28671 | 74.98763 | 38803 ft | 453 kts | 132° |
| 2026-04-27 21:13 | 11.24643 | 75.03704 | 38808 ft | 453 kts | 132° |
| 2026-04-27 21:13 | 11.20616 | 75.08641 | 38790 ft | 453 kts | 132° |
| 2026-04-27 21:14 | 11.16584 | 75.13581 | 38791 ft | 453 kts | 132° |
| 2026-04-27 21:14 | 11.12565 | 75.18504 | 38791 ft | 454 kts | 132° |
| 2026-04-27 21:15 | 11.08522 | 75.23453 | 38791 ft | 454 kts | 132° |
| 2026-04-27 21:15 | 11.04481 | 75.28398 | 38801 ft | 455 kts | 132° |
| 2026-04-27 21:16 | 11.00434 | 75.33348 | 38802 ft | 455 kts | 132° |
| 2026-04-27 21:16 | 10.96382 | 75.38302 | 38814 ft | 455 kts | 132° |
| 2026-04-27 21:17 | 10.92329 | 75.43253 | 38828 ft | 455 kts | 132° |
| 2026-04-27 21:17 | 10.90308 | 75.45723 | 38978 ft | 453 kts | 132° |
| 2026-04-27 21:17 | 10.88294 | 75.48183 | 39071 ft | 453 kts | 132° |
| 2026-04-27 21:18 | 10.84281 | 75.53083 | 39222 ft | 453 kts | 132° |
| 2026-04-27 21:18 | 10.80239 | 75.58015 | 39300 ft | 453 kts | 132° |
| 2026-04-27 21:19 | 10.76207 | 75.62933 | 39301 ft | 453 kts | 132° |
| 2026-04-27 21:19 | 10.72162 | 75.67863 | 39308 ft | 453 kts | 132° |
| 2026-04-27 21:20 | 10.66105 | 75.75244 | 39303 ft | 453 kts | 132° |
| 2026-04-27 21:20 | 10.62098 | 75.80123 | 39303 ft | 452 kts | 132° |
| 2026-04-27 21:21 | 10.58104 | 75.84982 | 39304 ft | 444 kts | 131° |
| 2026-04-27 21:21 | 10.54135 | 75.89811 | 39301 ft | 446 kts | 131° |
| 2026-04-27 21:22 | 10.50157 | 75.94650 | 39303 ft | 446 kts | 131° |
| 2026-04-27 21:22 | 10.46181 | 75.99483 | 39303 ft | 446 kts | 131° |
| 2026-04-27 21:23 | 10.42227 | 76.04287 | 39307 ft | 446 kts | 131° |
| 2026-04-27 21:23 | 10.38246 | 76.09121 | 39302 ft | 446 kts | 131° |
| 2026-04-27 21:24 | 10.34260 | 76.13960 | 39305 ft | 446 kts | 131° |
| 2026-04-27 21:24 | 10.30265 | 76.18806 | 39294 ft | 447 kts | 131° |
| 2026-04-27 21:25 | 10.26269 | 76.23653 | 39287 ft | 447 kts | 131° |
| 2026-04-27 21:25 | 10.22270 | 76.28502 | 39290 ft | 448 kts | 131° |
| 2026-04-27 21:26 | 10.18265 | 76.33356 | 39294 ft | 448 kts | 131° |
| 2026-04-27 21:26 | 10.14279 | 76.38184 | 39299 ft | 449 kts | 131° |
| 2026-04-27 21:27 | 10.10244 | 76.43042 | 39303 ft | 450 kts | 131° |
| 2026-04-27 21:27 | 10.06208 | 76.47896 | 39308 ft | 450 kts | 131° |
| 2026-04-27 21:28 | 10.02168 | 76.52755 | 39306 ft | 449 kts | 131° |
| 2026-04-27 21:28 | 9.98826 | 76.56774 | 39306 ft | 448 kts | 131° |
| 2026-04-27 21:29 | 9.94835 | 76.61572 | 39307 ft | 448 kts | 131° |
| 2026-04-27 21:29 | 9.90169 | 76.67178 | 39328 ft | 445 kts | 131° |
| 2026-04-27 21:30 | 9.86812 | 76.71210 | 39331 ft | 446 kts | 131° |
| 2026-04-27 21:30 | 9.82823 | 76.75998 | 39328 ft | 446 kts | 131° |
| 2026-04-27 21:31 | 9.78817 | 76.80806 | 39348 ft | 446 kts | 131° |
| 2026-04-27 21:31 | 9.74808 | 76.85615 | 39349 ft | 446 kts | 131° |
| 2026-04-27 21:32 | 9.70807 | 76.90413 | 39350 ft | 445 kts | 131° |
| 2026-04-27 21:32 | 9.66811 | 76.95203 | 39363 ft | 444 kts | 131° |
| 2026-04-27 21:33 | 9.62824 | 76.99981 | 39359 ft | 443 kts | 131° |
| 2026-04-27 21:33 | 9.58843 | 77.04748 | 39352 ft | 443 kts | 131° |
| 2026-04-27 21:34 | 9.54866 | 77.09508 | 39376 ft | 442 kts | 131° |
| 2026-04-27 21:34 | 9.50927 | 77.14222 | 39367 ft | 441 kts | 131° |
| 2026-04-27 21:35 | 9.46967 | 77.18960 | 39365 ft | 440 kts | 131° |
| 2026-04-27 21:35 | 9.43012 | 77.23690 | 39357 ft | 439 kts | 131° |
| 2026-04-27 21:36 | 9.39088 | 77.28380 | 39360 ft | 436 kts | 131° |
| 2026-04-27 21:36 | 9.35157 | 77.33077 | 39361 ft | 437 kts | 131° |
| 2026-04-27 21:37 | 9.31220 | 77.37780 | 39341 ft | 436 kts | 131° |
| 2026-04-27 21:37 | 9.27289 | 77.42473 | 39335 ft | 437 kts | 131° |
| 2026-04-27 21:38 | 9.23357 | 77.47165 | 39336 ft | 437 kts | 131° |
| 2026-04-27 21:38 | 9.19451 | 77.51825 | 39342 ft | 437 kts | 131° |
| 2026-04-27 21:39 | 9.15515 | 77.56518 | 39311 ft | 437 kts | 131° |
| 2026-04-27 21:39 | 9.11573 | 77.61217 | 39304 ft | 438 kts | 131° |
| 2026-04-27 21:40 | 9.07615 | 77.65933 | 39304 ft | 440 kts | 131° |
| 2026-04-27 21:40 | 9.03665 | 77.70640 | 39302 ft | 439 kts | 131° |
| 2026-04-27 21:41 | 8.99730 | 77.75325 | 39299 ft | 439 kts | 131° |
| 2026-04-27 21:41 | 8.95775 | 77.80032 | 39301 ft | 439 kts | 131° |
| 2026-04-27 21:42 | 8.91812 | 77.84748 | 39300 ft | 439 kts | 131° |
| 2026-04-27 21:42 | 8.87855 | 77.89454 | 39291 ft | 439 kts | 131° |
| 2026-04-27 21:43 | 8.83897 | 77.94161 | 39295 ft | 439 kts | 131° |
| 2026-04-27 21:43 | 8.79941 | 77.98862 | 39291 ft | 437 kts | 131° |
| 2026-04-27 21:44 | 8.76035 | 78.03503 | 39291 ft | 436 kts | 131° |
| 2026-04-27 21:44 | 8.72095 | 78.08182 | 39295 ft | 437 kts | 131° |
| 2026-04-27 21:45 | 8.68152 | 78.12864 | 39286 ft | 437 kts | 131° |
| 2026-04-27 21:45 | 8.64208 | 78.17544 | 39289 ft | 436 kts | 131° |
| 2026-04-27 21:46 | 8.60271 | 78.22216 | 39100 ft | 437 kts | 131° |
| 2026-04-27 21:46 | 8.58298 | 78.24556 | 38870 ft | 436 kts | 131° |
| 2026-04-27 21:46 | 8.56333 | 78.26886 | 38642 ft | 435 kts | 131° |
| 2026-04-27 21:47 | 8.54376 | 78.29207 | 38410 ft | 434 kts | 131° |
| 2026-04-27 21:47 | 8.52414 | 78.31533 | 38146 ft | 435 kts | 131° |
| 2026-04-27 21:47 | 8.50443 | 78.33868 | 37878 ft | 437 kts | 131° |
| 2026-04-27 21:47 | 8.48472 | 78.36204 | 37613 ft | 438 kts | 131° |
| 2026-04-27 21:48 | 8.46494 | 78.38548 | 37360 ft | 438 kts | 131° |
| 2026-04-27 21:48 | 8.44512 | 78.40896 | 36878 ft | 441 kts | 130° |
| 2026-04-27 21:48 | 8.42510 | 78.43266 | 36068 ft | 446 kts | 130° |
| 2026-04-27 21:48 | 8.40487 | 78.45661 | 35323 ft | 449 kts | 130° |
| 2026-04-27 21:49 | 8.38454 | 78.48068 | 34559 ft | 451 kts | 130° |
| 2026-04-27 21:49 | 8.36437 | 78.50454 | 33761 ft | 455 kts | 130° |
| 2026-04-27 21:49 | 8.34381 | 78.52886 | 32954 ft | 456 kts | 129° |
| 2026-04-27 21:49 | 8.32315 | 78.55329 | 32106 ft | 458 kts | 129° |
| 2026-04-27 21:50 | 8.30248 | 78.57772 | 31312 ft | 459 kts | 129° |
| 2026-04-27 21:50 | 8.28135 | 78.60209 | 30571 ft | 461 kts | 132° |
| 2026-04-27 21:50 | 8.25866 | 78.62508 | 30115 ft | 462 kts | 133° |
| 2026-04-27 21:50 | 8.23594 | 78.64812 | 29437 ft | 464 kts | 133° |
| 2026-04-27 21:51 | 8.21330 | 78.67113 | 28872 ft | 460 kts | 133° |
| 2026-04-27 21:51 | 8.19085 | 78.69395 | 28263 ft | 455 kts | 133° |
| 2026-04-27 21:51 | 8.16865 | 78.71653 | 27664 ft | 451 kts | 133° |
| 2026-04-27 21:51 | 8.14692 | 78.73862 | 27060 ft | 446 kts | 133° |
| 2026-04-27 21:52 | 8.12514 | 78.76072 | 26474 ft | 442 kts | 133° |
| 2026-04-27 21:52 | 8.10352 | 78.78265 | 25876 ft | 439 kts | 133° |
| 2026-04-27 21:52 | 8.08200 | 78.80448 | 25270 ft | 436 kts | 133° |
| 2026-04-27 21:52 | 8.06068 | 78.82611 | 24651 ft | 433 kts | 133° |
| 2026-04-27 21:53 | 8.03942 | 78.84769 | 24050 ft | 431 kts | 133° |
| 2026-04-27 21:53 | 8.01833 | 78.86908 | 23448 ft | 429 kts | 133° |
| 2026-04-27 21:53 | 7.99732 | 78.89039 | 22774 ft | 427 kts | 133° |
| 2026-04-27 21:53 | 7.97653 | 78.91148 | 22231 ft | 421 kts | 133° |
| 2026-04-27 21:54 | 7.95597 | 78.93232 | 21640 ft | 417 kts | 133° |
| 2026-04-27 21:54 | 7.93588 | 78.95269 | 21058 ft | 413 kts | 133° |
| 2026-04-27 21:54 | 7.91569 | 78.97316 | 20447 ft | 409 kts | 133° |
| 2026-04-27 21:54 | 7.89569 | 78.99343 | 19890 ft | 405 kts | 133° |
| 2026-04-27 21:55 | 7.87583 | 79.01356 | 19300 ft | 402 kts | 133° |
| 2026-04-27 21:55 | 7.85611 | 79.03354 | 18714 ft | 400 kts | 133° |
| 2026-04-27 21:55 | 7.83654 | 79.05336 | 18140 ft | 397 kts | 134° |
| 2026-04-27 21:55 | 7.81712 | 79.07305 | 17504 ft | 393 kts | 134° |
| 2026-04-27 21:56 | 7.79797 | 79.09244 | 16979 ft | 387 kts | 134° |
| 2026-04-27 21:56 | 7.76070 | 79.13038 | 15878 ft | 379 kts | 133° |
| 2026-04-27 21:56 | 7.74229 | 79.14919 | 15342 ft | 375 kts | 133° |
| 2026-04-27 21:57 | 7.72398 | 79.16789 | 14797 ft | 372 kts | 133° |
| 2026-04-27 21:57 | 7.70582 | 79.18642 | 14238 ft | 369 kts | 133° |
| 2026-04-27 21:57 | 7.68806 | 79.20455 | 13737 ft | 366 kts | 132° |
| 2026-04-27 21:57 | 7.66993 | 79.22305 | 13167 ft | 363 kts | 132° |
| 2026-04-27 21:58 | 7.65248 | 79.24085 | 12666 ft | 359 kts | 133° |
| 2026-04-27 21:58 | 7.63506 | 79.25862 | 12276 ft | 352 kts | 133° |
| 2026-04-27 21:58 | 7.61801 | 79.27600 | 11818 ft | 347 kts | 133° |
| 2026-04-27 21:58 | 7.60104 | 79.29331 | 11323 ft | 344 kts | 133° |
| 2026-04-27 21:59 | 7.58428 | 79.31040 | 10830 ft | 342 kts | 133° |
| 2026-04-27 21:59 | 7.56757 | 79.32743 | 10369 ft | 339 kts | 133° |
| 2026-04-27 21:59 | 7.55130 | 79.34401 | 10218 ft | 326 kts | 133° |
| 2026-04-27 21:59 | 7.53569 | 79.35991 | 10108 ft | 312 kts | 133° |
| 2026-04-27 22:00 | 7.52074 | 79.37512 | 9994 ft | 299 kts | 133° |
| 2026-04-27 22:00 | 7.50623 | 79.38991 | 9713 ft | 294 kts | 133° |
| 2026-04-27 22:00 | 7.49192 | 79.40450 | 9326 ft | 291 kts | 133° |
| 2026-04-27 22:00 | 7.47793 | 79.41876 | 8957 ft | 288 kts | 133° |
| 2026-04-27 22:01 | 7.46389 | 79.43306 | 8586 ft | 286 kts | 133° |
| 2026-04-27 22:01 | 7.44999 | 79.44723 | 8209 ft | 284 kts | 133° |
| 2026-04-27 22:01 | 7.43617 | 79.46130 | 7837 ft | 281 kts | 134° |
| 2026-04-27 22:01 | 7.42243 | 79.47529 | 7466 ft | 279 kts | 134° |
| 2026-04-27 22:02 | 7.40882 | 79.48916 | 7104 ft | 278 kts | 134° |
| 2026-04-27 22:02 | 7.39528 | 79.50294 | 6744 ft | 276 kts | 134° |
| 2026-04-27 22:02 | 7.38175 | 79.51672 | 6375 ft | 275 kts | 134° |
| 2026-04-27 22:02 | 7.36828 | 79.53042 | 5996 ft | 274 kts | 134° |
| 2026-04-27 22:03 | 7.35490 | 79.54405 | 5630 ft | 273 kts | 134° |
| 2026-04-27 22:03 | 7.34160 | 79.55759 | 5267 ft | 271 kts | 134° |
| 2026-04-27 22:03 | 7.32835 | 79.57109 | 4903 ft | 270 kts | 135° |
| 2026-04-27 22:03 | 7.31518 | 79.58450 | 4538 ft | 269 kts | 135° |
| 2026-04-27 22:04 | 7.30204 | 79.59787 | 4177 ft | 268 kts | 135° |
| 2026-04-27 22:04 | 7.28916 | 79.61098 | 3866 ft | 264 kts | 136° |
| 2026-04-27 22:04 | 7.27620 | 79.62417 | 3779 ft | 269 kts | 136° |
| 2026-04-27 22:04 | 7.26300 | 79.63758 | 3643 ft | 269 kts | 136° |
| 2026-04-27 22:05 | 7.24991 | 79.65090 | 3500 ft | 264 kts | 136° |
| 2026-04-27 22:05 | 7.23699 | 79.66405 | 3360 ft | 265 kts | 136° |
| 2026-04-27 22:05 | 7.22402 | 79.67725 | 3219 ft | 265 kts | 136° |
| 2026-04-27 22:05 | 7.21098 | 79.69047 | 3088 ft | 266 kts | 136° |
| 2026-04-27 22:06 | 7.19803 | 79.70365 | 2944 ft | 263 kts | 136° |
| 2026-04-27 22:06 | 7.18496 | 79.71662 | 2809 ft | 264 kts | 141° |
| 2026-04-27 22:06 | 7.16972 | 79.72624 | 2674 ft | 261 kts | 158° |
| 2026-04-27 22:06 | 7.15233 | 79.73142 | 2544 ft | 260 kts | 167° |
| 2026-04-27 22:07 | 7.13495 | 79.73574 | 2501 ft | 252 kts | 166° |
| 2026-04-27 22:07 | 7.11846 | 79.73994 | 2498 ft | 236 kts | 166° |
| 2026-04-27 22:07 | 7.10312 | 79.74424 | 2478 ft | 222 kts | 158° |
| 2026-04-27 22:07 | 7.09053 | 79.75245 | 2383 ft | 212 kts | 135° |
| 2026-04-27 22:08 | 7.08160 | 79.76373 | 2302 ft | 201 kts | 129° |
| 2026-04-27 22:08 | 7.07372 | 79.77508 | 2109 ft | 197 kts | 117° |
| 2026-04-27 22:08 | 7.07199 | 79.78833 | 1984 ft | 188 kts | 82° |
| 2026-04-27 22:08 | 7.07704 | 79.80005 | 1869 ft | 178 kts | 57° |
| 2026-04-27 22:09 | 7.08500 | 79.80895 | 1785 ft | 164 kts | 44° |
| 2026-04-27 22:09 | 7.09343 | 79.81612 | 1706 ft | 158 kts | 40° |
| 2026-04-27 22:09 | 7.10234 | 79.82314 | 1701 ft | 161 kts | 39° |
| 2026-04-27 22:09 | 7.11115 | 79.82993 | 1706 ft | 163 kts | 38° |
| 2026-04-27 22:10 | 7.12039 | 79.83703 | 1541 ft | 167 kts | 38° |
| 2026-04-27 22:10 | 7.12668 | 79.84179 | 1132 ft | 176 kts | 38° |
| 2026-04-27 22:10 | 7.13989 | 79.85197 | 624 ft | 171 kts | 41° |
| 2026-04-27 22:10 | 7.14835 | 79.85945 | 410 ft | 158 kts | 41° |
| 2026-04-27 22:11 | 7.15698 | 79.86597 | 355 ft | 156 kts | 36° |
| 2026-04-27 22:11 | 7.16580 | 79.87242 | 264 ft | 156 kts | 38° |
| 2026-04-27 22:11 | 7.17438 | 79.87876 | 43 ft | 148 kts | 35° |
| 2026-04-27 22:11 | 7.18131 | 79.88393 | 34 ft | 85 kts | 38° |
| 2026-04-27 22:12 | 7.18510 | 79.88696 | 35 ft | 60 kts | 37° |
| 2026-04-27 22:12 | 7.18706 | 79.88883 | 36 ft | 28 kts | 83° |
| 2026-04-27 22:12 | 7.18658 | 79.88957 | 35 ft | 6 kts | 162° |
| 2026-04-27 22:12 | 7.18603 | 79.88964 | 35 ft | 10 kts | 182° |
| 2026-04-27 22:13 | 7.18535 | 79.88925 | 34 ft | 13 kts | 228° |
| 2026-04-27 22:13 | 7.18459 | 79.88857 | 35 ft | 16 kts | 220° |
| 2026-04-27 22:13 | 7.18357 | 79.88788 | 34 ft | 19 kts | 212° |
| 2026-04-27 22:13 | 7.18239 | 79.88704 | 34 ft | 22 kts | 217° |
| 2026-04-27 22:14 | 7.18114 | 79.88602 | 34 ft | 24 kts | 218° |
| 2026-04-27 22:14 | 7.17972 | 79.88501 | 34 ft | 24 kts | 219° |
| 2026-04-27 22:14 | 7.17908 | 79.88452 | 34 ft | 16 kts | 195° |
| 2026-04-27 22:14 | 7.17832 | 79.88512 | 34 ft | 14 kts | 121° |
| 2026-04-27 22:15 | 7.17775 | 79.88535 | 33 ft | 2 kts | 202° |
| 2026-04-27 22:15 | 7.17772 | 79.88534 | 33 ft | 0 kts | 202° |
| 2026-04-27 22:15 | 7.17770 | 79.88534 | 33 ft | 0 kts | 185° |
| 2026-04-27 22:15 | 7.17760 | 79.88541 | 31 ft | 3 kts | 146° |
| 2026-04-27 22:16 | 7.17750 | 79.88559 | 33 ft | 5 kts | 112° |
| 2026-04-27 22:16 | 7.17731 | 79.88605 | 33 ft | 9 kts | 122° |
| 2026-04-27 22:16 | 7.17691 | 79.88634 | 33 ft | 8 kts | 188° |
| 2026-04-27 22:16 | 7.17645 | 79.88612 | 33 ft | 0 kts | 206° |
| 2026-04-27 22:17 | 7.17637 | 79.88608 | 33 ft | 1 kts | 206° |
| 2026-04-27 22:17 | 7.17632 | 79.88605 | 31 ft | 1 kts | 211° |
| 2026-04-27 22:17 | 7.17631 | 79.88605 | 31 ft | 0 kts | 212° |